createdAt,value
2023-05-18T00:01:23.629Z,7.85
2023-05-18T00:03:54.495Z,7.85
2023-05-18T00:06:22.708Z,8.55
2023-05-18T00:08:49.884Z,8.52
2023-05-18T00:11:18.165Z,8.48
2023-05-18T00:13:46.164Z,7.85
2023-05-18T00:16:16.111Z,9.27
2023-05-18T00:18:45.526Z,8.68
2023-05-18T00:21:13.578Z,8.80
2023-05-18T00:23:41.044Z,8.95
2023-05-18T00:26:07.939Z,9.60
2023-05-18T00:28:34.973Z,8.80
2023-05-18T00:31:02.086Z,9.05
2023-05-18T00:33:29.055Z,9.48
2023-05-18T00:35:57.705Z,8.90
2023-05-18T00:38:25.036Z,8.77
2023-05-18T00:40:52.069Z,9.73
2023-05-18T00:43:19.100Z,8.30
2023-05-18T00:45:46.168Z,9.20
2023-05-18T00:48:13.287Z,8.88
2023-05-18T00:50:40.882Z,8.70
2023-05-18T00:53:10.874Z,9.45
2023-05-18T00:55:38.052Z,8.52
2023-05-18T00:58:05.561Z,9.20
2023-05-18T01:00:33.992Z,9.55
2023-05-18T01:03:02.419Z,9.77
2023-05-18T01:05:29.992Z,9.93
2023-05-18T01:07:58.053Z,8.45
2023-05-18T01:10:25.372Z,8.13
2023-05-18T01:12:55.042Z,9.23
2023-05-18T01:15:34.278Z,8.00
2023-05-18T01:18:23.514Z,7.40
2023-05-18T01:21:00.195Z,8.10
2023-05-18T01:23:42.597Z,8.48
2023-05-18T01:26:17.974Z,8.52
2023-05-18T01:28:47.013Z,8.60
2023-05-18T01:31:16.573Z,8.40
2023-05-18T01:33:44.946Z,8.25
2023-05-18T01:36:12.107Z,8.77
2023-05-18T01:38:43.133Z,7.47
2023-05-18T01:41:28.674Z,7.65
2023-05-18T01:44:15.888Z,7.97
2023-05-18T01:47:21.749Z,8.05
2023-05-18T01:49:59.181Z,8.35
2023-05-18T01:52:47.500Z,8.70
2023-05-18T01:55:17.422Z,8.02
2023-05-18T01:57:46.681Z,7.72
2023-05-18T02:00:17.858Z,7.80
2023-05-18T02:02:46.748Z,7.78
2023-05-18T02:05:16.601Z,7.82
2023-05-18T02:07:47.653Z,7.07
2023-05-18T02:10:15.369Z,7.85
2023-05-18T02:12:42.671Z,7.88
2023-05-18T02:15:10.154Z,8.07
2023-05-18T02:17:40.198Z,8.27
2023-05-18T02:20:07.978Z,7.80
2023-05-18T02:22:35.614Z,7.63
2023-05-18T02:25:04.250Z,8.20
2023-05-18T02:27:32.417Z,7.90
2023-05-18T02:29:59.592Z,8.25
2023-05-18T02:32:26.896Z,7.93
2023-05-18T02:34:53.968Z,7.82
2023-05-18T02:37:23.326Z,7.88
2023-05-18T02:39:50.659Z,7.57
2023-05-18T02:42:17.580Z,7.35
2023-05-18T02:44:44.614Z,8.27
2023-05-18T02:47:15.018Z,7.97
2023-05-18T02:49:42.177Z,7.50
2023-05-18T02:52:09.266Z,6.72
2023-05-18T02:54:36.655Z,6.95
2023-05-18T02:57:06.863Z,7.38
2023-05-18T02:59:51.044Z,7.15
2023-05-18T03:02:18.394Z,6.78
2023-05-18T03:04:49.332Z,7.90
2023-05-18T03:07:16.939Z,7.28
2023-05-18T03:09:44.955Z,6.80
2023-05-18T03:12:12.618Z,10.27
2023-05-18T03:14:40.162Z,11.68
2023-05-18T03:17:07.461Z,10.73
2023-05-18T03:19:35.101Z,8.65
2023-05-18T03:22:02.084Z,10.88
2023-05-18T03:24:30.618Z,9.88
2023-05-18T03:27:01.127Z,8.95
2023-05-18T03:29:31.340Z,7.38
2023-05-18T03:31:59.459Z,8.15
2023-05-18T03:34:26.767Z,8.45
2023-05-18T03:36:54.877Z,8.98
2023-05-18T03:39:22.576Z,8.93
2023-05-18T03:41:49.724Z,8.27
2023-05-18T03:44:17.091Z,8.05
2023-05-18T03:46:44.602Z,8.38
2023-05-18T03:49:12.081Z,7.40
2023-05-18T03:51:41.967Z,7.50
2023-05-18T03:54:09.387Z,6.65
2023-05-18T03:56:36.844Z,6.25
2023-05-18T03:59:04.551Z,5.80
2023-05-18T04:01:34.665Z,6.72
2023-05-18T04:04:01.827Z,7.07
2023-05-18T04:06:30.204Z,7.03
2023-05-18T04:08:57.267Z,6.95
2023-05-18T04:11:26.061Z,7.10
2023-05-18T04:13:53.632Z,6.43
2023-05-18T04:16:22.049Z,7.25
2023-05-18T04:18:49.245Z,7.07
2023-05-18T04:21:17.497Z,6.45
2023-05-18T04:23:45.919Z,6.40
2023-05-18T04:26:19.939Z,6.43
2023-05-18T04:28:50.061Z,7.25
2023-05-18T04:31:18.248Z,6.68
2023-05-18T04:33:47.511Z,6.75
2023-05-18T04:36:15.194Z,6.82
2023-05-18T04:38:42.408Z,6.78
2023-05-18T04:41:09.690Z,7.20
2023-05-18T04:43:37.908Z,7.03
2023-05-18T04:46:07.433Z,8.00
2023-05-18T04:48:35.415Z,7.57
2023-05-18T04:51:05.093Z,7.82
2023-05-18T04:53:33.677Z,8.38
2023-05-18T04:56:01.861Z,8.15
2023-05-18T04:58:30.714Z,7.47
2023-05-18T05:00:58.185Z,7.00
2023-05-18T05:03:25.259Z,7.78
2023-05-18T05:05:52.481Z,6.65
2023-05-18T05:08:19.597Z,8.23
2023-05-18T05:10:46.864Z,8.60
2023-05-18T05:13:14.948Z,7.60
2023-05-18T05:15:42.275Z,6.50
2023-05-18T05:18:09.309Z,7.78
2023-05-18T05:20:36.470Z,9.55
2023-05-18T05:23:03.475Z,10.90
2023-05-18T05:25:30.809Z,10.95
2023-05-18T05:27:58.021Z,8.57
2023-05-18T05:30:26.711Z,9.30
2023-05-18T05:32:54.120Z,7.85
2023-05-18T05:35:21.706Z,5.85
2023-05-18T05:37:48.961Z,7.10
2023-05-18T05:40:17.020Z,6.00
2023-05-18T05:42:46.353Z,5.78
2023-05-18T05:45:13.596Z,6.60
2023-05-18T05:47:53.100Z,7.40
2023-05-18T05:50:21.588Z,5.70
2023-05-18T05:52:50.272Z,5.57
2023-05-18T05:55:18.264Z,5.57
2023-05-18T05:57:45.481Z,4.57
2023-05-18T06:00:13.733Z,4.63
2023-05-18T06:02:52.719Z,4.78
2023-05-18T06:05:26.527Z,5.03
2023-05-18T06:07:55.659Z,5.20
2023-05-18T06:10:22.762Z,5.15
2023-05-18T06:12:50.268Z,5.10
2023-05-18T06:15:19.021Z,4.13
2023-05-18T06:17:47.333Z,4.68
2023-05-18T06:20:15.319Z,4.53
2023-05-18T06:22:42.256Z,4.40
2023-05-18T06:25:18.596Z,4.28
2023-05-18T06:27:58.477Z,4.47
2023-05-18T06:30:44.229Z,6.03
2023-05-18T06:33:21.392Z,7.60
2023-05-18T06:35:48.559Z,5.47
2023-05-18T06:38:15.665Z,4.55
2023-05-18T06:40:42.804Z,4.22
2023-05-18T06:43:10.036Z,4.50
2023-05-18T06:45:48.505Z,5.35
2023-05-18T06:48:29.190Z,4.68
2023-05-18T06:50:56.568Z,4.93
2023-05-18T06:53:23.741Z,4.95
2023-05-18T06:55:50.895Z,4.70
2023-05-18T06:58:17.891Z,5.47
2023-05-18T07:00:46.003Z,4.63
2023-05-18T07:03:13.354Z,4.50
2023-05-18T07:05:40.357Z,4.72
2023-05-18T07:08:07.760Z,5.47
2023-05-18T07:10:35.892Z,7.07
2023-05-18T07:13:03.024Z,9.43
2023-05-18T07:15:30.410Z,6.57
2023-05-18T07:17:58.023Z,6.13
2023-05-18T07:20:26.555Z,4.20
2023-05-18T07:22:56.068Z,4.05
2023-05-18T07:25:23.935Z,4.70
2023-05-18T07:27:54.808Z,4.68
2023-05-18T07:30:23.797Z,5.78
2023-05-18T07:32:51.454Z,4.80
2023-05-18T07:35:22.207Z,4.55
2023-05-18T07:37:52.182Z,4.20
2023-05-18T07:40:19.382Z,4.07
2023-05-18T07:42:46.931Z,3.83
2023-05-18T07:45:13.989Z,3.78
2023-05-18T07:47:41.205Z,3.58
2023-05-18T07:50:08.971Z,2.90
2023-05-18T07:52:36.132Z,3.50
2023-05-18T07:55:03.271Z,2.47
2023-05-18T07:57:31.186Z,2.83
2023-05-18T07:59:58.151Z,2.63
2023-05-18T08:02:25.421Z,2.13
2023-05-18T08:04:53.497Z,2.65
2023-05-18T08:07:21.553Z,2.78
2023-05-18T08:09:48.607Z,2.42
2023-05-18T08:12:15.932Z,2.88
2023-05-18T08:14:43.398Z,2.40
2023-05-18T08:17:10.748Z,2.72
2023-05-18T08:19:39.825Z,3.60
2023-05-18T08:22:08.912Z,2.40
2023-05-18T08:24:35.958Z,2.80
2023-05-18T08:27:03.653Z,2.70
2023-05-18T08:29:30.951Z,2.55
2023-05-18T08:31:58.226Z,2.83
2023-05-18T08:34:25.716Z,3.33
2023-05-18T08:36:52.900Z,2.30
2023-05-18T08:39:20.034Z,2.42
2023-05-18T08:42:05.715Z,2.47
2023-05-18T08:45:15.502Z,2.40
2023-05-18T08:47:42.614Z,2.25
2023-05-18T08:50:13.816Z,2.42
2023-05-18T08:52:46.915Z,2.30
2023-05-18T08:55:15.878Z,2.03
2023-05-18T08:57:44.259Z,2.13
2023-05-18T09:00:12.857Z,2.80
2023-05-18T09:02:41.532Z,2.45
2023-05-18T09:05:10.080Z,2.20
2023-05-18T09:07:39.721Z,2.00
2023-05-18T09:10:08.072Z,2.60
2023-05-18T09:12:36.325Z,2.47
2023-05-18T09:15:04.097Z,2.53
2023-05-18T09:17:31.912Z,2.75
2023-05-18T09:19:59.117Z,2.33
2023-05-18T09:22:26.625Z,2.05
2023-05-18T09:24:53.814Z,2.38
2023-05-18T09:27:22.450Z,23.08
2023-05-18T09:29:54.362Z,19.63
2023-05-18T09:32:22.533Z,4.90
2023-05-18T09:34:50.627Z,3.65
2023-05-18T09:37:18.815Z,2.63
2023-05-18T09:39:57.939Z,2.22
2023-05-18T09:42:45.030Z,3.17
2023-05-18T09:45:19.507Z,2.35
2023-05-18T09:47:47.445Z,3.42
2023-05-18T09:50:14.540Z,3.10
2023-05-18T09:52:43.575Z,3.17
2023-05-18T09:55:11.928Z,3.58
2023-05-18T09:57:44.260Z,3.10
2023-05-18T10:00:12.884Z,3.17
2023-05-18T10:02:41.832Z,3.58
2023-05-18T10:05:35.531Z,3.22
2023-05-18T10:08:03.279Z,3.55
2023-05-18T10:10:30.766Z,4.57
2023-05-18T10:12:58.697Z,2.58
2023-05-18T10:15:26.497Z,2.55
2023-05-18T10:17:56.711Z,3.10
2023-05-18T10:20:26.929Z,3.55
2023-05-18T10:22:56.553Z,3.30
2023-05-18T10:25:27.526Z,2.72
2023-05-18T10:27:57.823Z,3.00
2023-05-18T10:30:26.615Z,2.63
2023-05-18T10:32:57.127Z,4.10
2023-05-18T10:35:28.395Z,3.50
2023-05-18T10:40:24.928Z,3.10
2023-05-18T10:42:53.744Z,3.05
2023-05-18T10:45:21.351Z,3.55
2023-05-18T10:47:49.072Z,3.70
2023-05-18T10:50:17.150Z,3.58
2023-05-18T10:52:46.293Z,3.40
2023-05-18T10:55:13.430Z,4.55
2023-05-18T10:57:45.844Z,5.63
2023-05-18T11:00:13.668Z,6.38
2023-05-18T11:02:43.258Z,7.10
2023-05-18T11:05:11.905Z,6.88
2023-05-18T11:07:39.243Z,7.05
2023-05-18T11:10:11.571Z,7.43
2023-05-18T11:12:40.771Z,6.68
2023-05-18T11:15:08.810Z,6.13
2023-05-18T11:17:36.145Z,6.70
2023-05-18T11:20:09.236Z,6.88
2023-05-18T11:23:02.574Z,6.80
2023-05-18T11:25:32.527Z,6.00
2023-05-18T11:28:02.654Z,7.30
2023-05-18T11:30:45.084Z,7.07
2023-05-18T11:33:22.785Z,6.18
2023-05-18T11:36:12.309Z,6.07
2023-05-18T11:38:47.308Z,7.47
2023-05-18T11:41:58.553Z,6.07
2023-05-18T11:44:28.630Z,5.57
2023-05-18T11:46:58.641Z,5.90
2023-05-18T11:49:31.362Z,5.47
2023-05-18T11:52:13.915Z,5.50
2023-05-18T11:54:52.446Z,6.07
2023-05-18T11:57:24.071Z,5.70
2023-05-18T11:59:58.373Z,5.50
2023-05-18T12:02:35.659Z,5.65
2023-05-18T12:05:07.253Z,4.90
2023-05-18T12:07:36.399Z,6.13
2023-05-18T12:10:08.327Z,5.63
2023-05-18T12:12:35.507Z,5.80
2023-05-18T12:15:08.379Z,4.32
2023-05-18T12:17:43.742Z,4.35
2023-05-18T12:20:18.762Z,4.93
2023-05-18T12:22:50.421Z,5.05
2023-05-18T12:25:18.155Z,4.93
2023-05-18T12:27:46.199Z,5.50
2023-05-18T12:30:20.865Z,4.95
2023-05-18T12:32:52.535Z,4.97
2023-05-18T12:35:23.911Z,4.05
2023-05-18T12:37:51.314Z,4.15
2023-05-18T12:40:20.227Z,4.53
2023-05-18T12:42:57.273Z,4.05
2023-05-18T12:45:32.757Z,5.03
2023-05-18T12:48:10.654Z,4.93
2023-05-18T12:50:46.961Z,5.03
2023-05-18T12:53:14.148Z,5.30
2023-05-18T12:55:41.707Z,6.28
2023-05-18T12:58:18.355Z,6.13
2023-05-18T13:00:47.578Z,4.95
2023-05-18T13:03:17.411Z,4.50
2023-05-18T13:05:46.471Z,4.32
2023-05-18T13:08:22.120Z,4.60
2023-05-18T13:11:01.273Z,4.63
2023-05-18T13:13:36.668Z,4.63
2023-05-18T13:16:03.895Z,4.32
2023-05-18T13:18:30.885Z,4.97
2023-05-18T13:20:58.817Z,4.85
2023-05-18T13:23:31.686Z,5.45
2023-05-18T13:25:59.214Z,5.00
2023-05-18T13:28:27.884Z,4.55
2023-05-18T13:30:55.248Z,4.53
2023-05-18T13:33:22.135Z,4.35
2023-05-18T13:35:50.231Z,4.32
2023-05-18T13:38:17.088Z,4.10
2023-05-18T13:40:44.017Z,4.35
2023-05-18T13:43:13.537Z,5.50
2023-05-18T13:45:42.393Z,5.25
2023-05-18T13:48:10.941Z,5.35
2023-05-18T13:50:39.585Z,5.43
2023-05-18T13:53:07.177Z,5.55
2023-05-18T13:55:34.894Z,6.47
2023-05-18T13:58:02.074Z,5.72
2023-05-18T14:00:29.111Z,6.32
2023-05-18T14:02:56.880Z,6.32
2023-05-18T14:05:24.186Z,7.72
2023-05-18T14:07:54.505Z,8.48
2023-05-18T14:10:21.678Z,8.55
2023-05-18T14:12:49.040Z,7.57
2023-05-18T14:15:16.617Z,8.45
2023-05-18T14:17:44.920Z,8.27
2023-05-18T14:20:12.912Z,8.32
2023-05-18T14:22:40.619Z,8.52
2023-05-18T14:25:08.370Z,8.18
2023-05-18T14:27:35.664Z,7.45
2023-05-18T14:30:02.667Z,6.88
2023-05-18T14:32:29.655Z,7.25
2023-05-18T14:34:58.158Z,6.28
2023-05-18T14:37:25.695Z,5.93
2023-05-18T14:39:53.140Z,6.55
2023-05-18T14:42:23.666Z,5.65
2023-05-18T14:44:50.614Z,6.33
2023-05-18T14:47:22.733Z,6.45
2023-05-18T14:49:49.748Z,7.00
2023-05-18T14:52:17.012Z,6.13
2023-05-18T14:54:44.081Z,5.88
2023-05-18T14:57:11.463Z,5.75
2023-05-18T14:59:38.522Z,5.80
2023-05-18T15:02:05.829Z,5.93
2023-05-18T15:04:33.060Z,5.47
2023-05-18T15:07:00.819Z,4.53
2023-05-18T15:09:27.961Z,4.43
2023-05-18T15:11:55.189Z,4.82
2023-05-18T15:14:22.296Z,4.85
2023-05-18T15:16:49.524Z,5.03
2023-05-18T15:19:16.578Z,5.32
2023-05-18T15:21:47.051Z,5.25
2023-05-18T15:24:14.101Z,4.45
2023-05-18T15:26:42.081Z,4.88
2023-05-18T15:29:09.798Z,5.05
2023-05-18T15:31:39.786Z,4.35
2023-05-18T15:34:06.875Z,4.70
2023-05-18T15:36:36.361Z,4.45
2023-05-18T15:39:05.051Z,3.88
2023-05-18T15:41:35.562Z,3.35
2023-05-18T15:44:05.727Z,4.10
2023-05-18T15:46:35.625Z,3.75
2023-05-18T15:49:04.150Z,3.40
2023-05-18T15:51:31.689Z,4.25
2023-05-18T15:53:59.081Z,3.28
2023-05-18T15:56:26.291Z,3.85
2023-05-18T15:58:53.636Z,3.78
2023-05-18T16:01:20.711Z,3.53
2023-05-18T16:03:47.799Z,3.50
2023-05-18T16:06:14.975Z,3.65
2023-05-18T16:08:42.166Z,3.42
2023-05-18T16:11:09.250Z,3.67
2023-05-18T16:13:36.168Z,3.25
2023-05-18T16:16:06.427Z,3.75
2023-05-18T16:18:33.498Z,3.25
2023-05-18T16:21:02.337Z,4.00
2023-05-18T16:23:29.780Z,3.90
2023-05-18T16:25:58.776Z,4.57
2023-05-18T16:28:26.773Z,4.70
2023-05-18T16:30:55.790Z,3.35
2023-05-18T16:33:25.846Z,3.58
2023-05-18T16:35:53.547Z,3.92
2023-05-18T17:02:16.663Z,3.60
2023-05-18T17:04:50.140Z,3.90
2023-05-18T17:07:17.256Z,2.97
2023-05-18T17:09:44.802Z,2.85
2023-05-18T17:12:12.786Z,2.95
2023-05-18T17:14:40.570Z,2.60
2023-05-18T17:17:10.916Z,2.83
2023-05-18T17:19:39.821Z,3.20
2023-05-18T17:22:09.781Z,2.90
2023-05-18T17:24:40.912Z,2.97
2023-05-18T17:27:08.455Z,2.78
2023-05-18T17:29:35.307Z,3.05
2023-05-18T17:32:05.968Z,3.17
2023-05-18T17:34:36.462Z,2.50
2023-05-18T17:37:03.954Z,3.78
2023-05-18T17:39:31.214Z,3.03
2023-05-18T17:42:00.193Z,3.35
2023-05-18T17:44:27.651Z,3.60
2023-05-18T17:46:54.683Z,3.55
2023-05-18T17:49:21.955Z,3.10
2023-05-18T17:51:49.681Z,2.92
2023-05-18T17:54:16.956Z,2.63
2023-05-18T17:56:44.017Z,2.97
2023-05-18T17:59:11.239Z,3.47
2023-05-18T18:01:38.403Z,2.92
2023-05-18T18:04:05.697Z,2.78
2023-05-18T18:06:36.010Z,2.22
2023-05-18T18:09:04.972Z,2.20
2023-05-18T18:11:32.328Z,2.75
2023-05-18T18:14:00.042Z,2.80
2023-05-18T18:16:27.097Z,2.60
2023-05-18T18:18:54.433Z,3.10
2023-05-18T18:21:21.586Z,3.03
2023-05-18T18:23:48.599Z,2.60
2023-05-18T18:26:15.777Z,2.13
2023-05-18T18:28:42.726Z,2.95
2023-05-18T18:31:09.891Z,2.60
2023-05-18T18:33:36.943Z,3.08
2023-05-18T18:36:05.897Z,2.70
2023-05-18T18:38:34.096Z,2.58
2023-05-18T18:41:04.418Z,3.85
2023-05-18T18:43:40.494Z,3.70
2023-05-18T18:46:07.623Z,3.10
2023-05-18T18:48:34.766Z,3.45
2023-05-18T18:51:01.677Z,3.58
2023-05-18T18:53:28.696Z,3.42
2023-05-18T18:55:57.291Z,4.00
2023-05-18T18:58:24.521Z,4.32
2023-05-18T19:00:51.850Z,4.93
2023-05-18T19:03:18.922Z,4.45
2023-05-18T19:05:45.954Z,6.43
2023-05-18T19:08:13.051Z,4.90
2023-05-18T19:10:40.197Z,5.57
2023-05-18T19:13:07.187Z,4.43
2023-05-18T19:15:35.310Z,4.20
2023-05-18T19:18:03.190Z,3.65
2023-05-18T19:20:31.599Z,3.33
2023-05-18T19:22:58.641Z,4.70
2023-05-18T19:25:31.944Z,3.65
2023-05-18T19:30:57.340Z,3.30
2023-05-18T19:33:24.780Z,3.85
2023-05-18T19:38:38.998Z,3.30
2023-05-18T19:41:06.789Z,3.38
2023-05-18T19:43:33.829Z,3.10
2023-05-18T19:46:01.063Z,3.50
2023-05-18T19:48:28.133Z,3.20
2023-05-18T19:50:55.167Z,3.05
2023-05-18T19:53:23.075Z,3.25
2023-05-18T19:55:50.342Z,3.67
2023-05-18T19:58:17.187Z,3.08
2023-05-18T20:00:44.497Z,3.15
2023-05-18T20:03:11.542Z,3.33
2023-05-18T20:05:38.647Z,3.50
2023-05-18T20:08:07.567Z,3.35
2023-05-18T20:10:34.641Z,4.00
2023-05-18T20:13:01.755Z,3.70
2023-05-18T20:15:38.027Z,3.28
2023-05-18T20:18:08.725Z,3.55
2023-05-18T20:20:36.269Z,3.92
2023-05-18T20:23:03.645Z,3.60
2023-05-18T20:25:35.524Z,4.03
2023-05-18T20:28:08.637Z,3.90
2023-05-18T20:30:36.430Z,4.35
2023-05-18T20:33:04.220Z,4.60
2023-05-18T20:35:32.109Z,4.20
2023-05-18T20:38:00.195Z,4.28
2023-05-18T20:40:30.961Z,4.38
2023-05-18T20:43:01.022Z,4.80
2023-05-18T20:45:29.994Z,5.43
2023-05-18T20:47:57.747Z,6.10
2023-05-18T20:50:24.879Z,8.30
2023-05-18T20:52:52.918Z,4.72
2023-05-18T20:55:20.055Z,4.10
2023-05-18T20:57:49.218Z,3.90
2023-05-18T21:00:19.926Z,4.88
2023-05-18T21:02:48.566Z,4.32
2023-05-18T21:05:16.631Z,4.63
2023-05-18T21:07:44.047Z,4.43
2023-05-18T21:10:15.886Z,4.53
2023-05-18T21:12:43.912Z,4.63
2023-05-18T21:15:11.224Z,5.03
2023-05-18T21:17:38.263Z,5.20
2023-05-18T21:20:07.247Z,4.55
2023-05-18T21:22:34.812Z,3.95
2023-05-18T21:25:04.682Z,4.45
2023-05-18T21:27:37.854Z,4.53
2023-05-18T21:30:06.200Z,5.45
2023-05-18T21:32:33.816Z,4.40
2023-05-18T21:35:00.861Z,4.45
2023-05-18T21:37:33.180Z,5.25
2023-05-18T21:40:00.451Z,5.45
2023-05-18T21:42:27.398Z,5.20
2023-05-18T21:44:54.321Z,5.35
2023-05-18T21:47:21.648Z,4.72
2023-05-18T21:49:48.491Z,5.10
2023-05-18T21:52:15.589Z,5.60
2023-05-18T21:54:42.424Z,6.82
2023-05-18T21:57:09.462Z,7.75
2023-05-18T21:59:36.428Z,6.95
2023-05-18T22:02:03.474Z,6.90
2023-05-18T22:04:30.592Z,8.07
2023-05-18T22:06:57.819Z,6.28
2023-05-18T22:09:24.763Z,6.50
2023-05-18T22:11:51.714Z,7.13
2023-05-18T22:14:18.875Z,6.60
2023-05-18T22:16:45.885Z,6.25
2023-05-18T22:19:12.889Z,5.35
2023-05-18T22:21:39.818Z,6.28
2023-05-18T22:24:06.877Z,5.10
2023-05-18T22:26:33.776Z,6.07
2023-05-18T22:29:00.585Z,6.20
2023-05-18T22:31:28.079Z,5.32
2023-05-18T22:33:56.038Z,5.97
2023-05-18T22:36:23.061Z,6.50
2023-05-18T22:38:50.132Z,5.97
2023-05-18T22:41:17.290Z,6.13
2023-05-18T22:43:45.136Z,6.15
2023-05-18T22:46:12.188Z,6.28
2023-05-18T22:48:39.669Z,6.38
2023-05-18T22:51:07.038Z,6.28
2023-05-18T22:53:34.123Z,6.45
2023-05-18T22:56:01.060Z,6.43
2023-05-18T22:58:28.248Z,6.85
2023-05-18T23:00:55.071Z,7.15
2023-05-18T23:03:22.215Z,7.60
2023-05-18T23:05:49.185Z,6.40
2023-05-18T23:08:16.418Z,6.70
2023-05-18T23:10:44.552Z,7.07
2023-05-18T23:13:12.749Z,7.65
2023-05-18T23:15:41.541Z,6.60
2023-05-18T23:18:09.230Z,7.32
2023-05-18T23:20:38.710Z,7.35
2023-05-18T23:23:05.757Z,6.50
2023-05-18T23:25:33.073Z,7.20
2023-05-18T23:27:59.974Z,6.63
2023-05-18T23:30:27.131Z,6.50
2023-05-18T23:32:54.884Z,6.45
2023-05-18T23:35:21.915Z,6.38
2023-05-18T23:37:50.247Z,7.47
2023-05-18T23:40:19.230Z,7.15
2023-05-18T23:42:46.600Z,7.28
2023-05-18T23:45:14.199Z,7.72
2023-05-18T23:47:41.451Z,8.40
2023-05-18T23:50:08.908Z,8.52
2023-05-18T23:52:36.969Z,7.82
2023-05-18T23:55:05.095Z,7.68
2023-05-18T23:57:33.140Z,7.45
